createdAt,value
2022-10-20T00:00:54.174Z,8.20
2022-10-20T00:03:20.946Z,5.90
2022-10-20T00:05:47.832Z,8.23
2022-10-20T00:08:14.629Z,12.65
2022-10-20T00:10:41.345Z,7.07
2022-10-20T00:13:08.435Z,10.63
2022-10-20T00:15:35.333Z,5.88
2022-10-20T00:18:02.114Z,5.25
2022-10-20T00:20:28.810Z,4.28
2022-10-20T00:22:55.519Z,3.88
2022-10-20T00:25:22.171Z,5.32
2022-10-20T00:27:48.874Z,7.05
2022-10-20T00:30:15.614Z,4.82
2022-10-20T00:32:42.265Z,4.03
2022-10-20T00:35:09.369Z,5.35
2022-10-20T00:37:36.048Z,1.98
2022-10-20T00:40:02.714Z,4.68
2022-10-20T00:42:29.439Z,4.90
2022-10-20T00:44:59.718Z,3.88
2022-10-20T00:47:47.775Z,4.50
2022-10-20T00:50:25.879Z,4.05
2022-10-20T00:52:54.793Z,4.07
2022-10-20T00:55:25.777Z,5.20
2022-10-20T00:57:54.768Z,4.88
2022-10-20T01:00:22.068Z,4.60
2022-10-20T01:02:51.233Z,2.92
2022-10-20T01:05:18.263Z,5.10
2022-10-20T01:07:44.991Z,5.25
2022-10-20T01:10:12.424Z,5.88
2022-10-20T01:12:47.008Z,4.70
2022-10-20T01:15:16.593Z,7.65
2022-10-20T01:17:43.466Z,8.82
2022-10-20T01:20:16.045Z,6.57
2022-10-20T01:23:09.847Z,5.72
2022-10-20T01:25:36.446Z,5.55
2022-10-20T01:28:08.935Z,7.25
2022-10-20T01:30:42.897Z,5.57
2022-10-20T01:33:10.085Z,7.00
2022-10-20T01:35:46.060Z,7.03
2022-10-20T01:38:42.365Z,6.18
2022-10-20T01:41:21.771Z,7.60
2022-10-20T01:43:50.182Z,6.18
2022-10-20T01:46:21.782Z,12.00
2022-10-20T01:51:15.368Z,5.45
2022-10-20T01:53:42.076Z,10.38
2022-10-20T01:56:18.059Z,5.32
2022-10-20T01:58:47.753Z,5.15
2022-10-20T02:01:46.428Z,6.40
2022-10-20T02:04:14.444Z,9.35
2022-10-20T02:07:04.581Z,5.63
2022-10-20T02:09:38.856Z,6.65
2022-10-20T02:12:34.800Z,6.63
2022-10-20T02:15:02.856Z,7.28
2022-10-20T02:17:29.668Z,6.65
2022-10-20T02:19:58.200Z,7.95
2022-10-20T02:22:25.904Z,7.55
2022-10-20T02:24:52.573Z,8.05
2022-10-20T02:27:22.639Z,7.88
2022-10-20T02:29:56.565Z,9.63
2022-10-20T02:32:24.870Z,9.15
2022-10-20T02:34:51.545Z,7.75
2022-10-20T02:37:18.412Z,6.43
2022-10-20T02:39:45.147Z,7.13
2022-10-20T02:42:12.757Z,8.18
2022-10-20T02:44:39.580Z,6.38
2022-10-20T02:47:06.327Z,6.78
2022-10-20T02:49:33.144Z,7.47
2022-10-20T02:51:59.860Z,9.13
2022-10-20T02:54:28.821Z,11.38
2022-10-20T02:56:56.007Z,7.72
2022-10-20T02:59:22.735Z,7.35
2022-10-20T03:01:51.366Z,6.38
2022-10-20T03:04:18.382Z,9.15
2022-10-20T03:06:45.115Z,8.65
2022-10-20T03:09:11.859Z,11.13
2022-10-20T03:11:38.539Z,7.45
2022-10-20T03:14:05.505Z,5.63
2022-10-20T03:16:32.214Z,9.00
2022-10-20T03:19:01.980Z,8.02
2022-10-20T03:21:34.268Z,10.70
2022-10-20T03:24:01.082Z,7.88
2022-10-20T03:26:27.986Z,7.05
2022-10-20T03:28:54.691Z,8.32
2022-10-20T03:31:21.500Z,7.85
2022-10-20T03:33:48.271Z,6.80
2022-10-20T03:36:14.923Z,9.15
2022-10-20T03:38:43.346Z,8.05
2022-10-20T03:41:10.468Z,6.78
2022-10-20T03:43:39.695Z,7.60
2022-10-20T03:46:09.566Z,9.45
2022-10-20T03:48:37.138Z,9.43
2022-10-20T03:51:05.062Z,9.90
2022-10-20T03:53:32.310Z,8.23
2022-10-20T03:55:59.433Z,8.15
2022-10-20T03:58:26.128Z,7.80
2022-10-20T04:00:53.199Z,8.18
2022-10-20T04:03:19.908Z,7.90
2022-10-20T04:05:46.648Z,10.05
2022-10-20T04:10:44.890Z,15.15
2022-10-20T04:13:11.583Z,11.90
2022-10-20T04:15:38.294Z,10.63
2022-10-20T04:18:05.047Z,13.75
2022-10-20T04:20:31.743Z,10.80
2022-10-20T04:22:58.431Z,10.85
2022-10-20T04:25:25.080Z,9.73
2022-10-20T04:27:51.780Z,12.57
2022-10-20T04:30:18.479Z,9.38
2022-10-20T04:32:45.195Z,10.23
2022-10-20T04:35:11.832Z,7.85
2022-10-20T04:37:38.787Z,9.30
2022-10-20T04:40:06.897Z,10.73
2022-10-20T04:42:33.624Z,7.90
2022-10-20T04:45:00.429Z,11.35
2022-10-20T04:47:31.964Z,7.20
2022-10-20T04:49:58.927Z,8.93
2022-10-20T04:52:25.626Z,8.48
2022-10-20T04:54:52.324Z,10.27
2022-10-20T04:57:19.070Z,9.43
2022-10-20T04:59:46.310Z,10.07
2022-10-20T05:02:13.032Z,15.88
2022-10-20T05:04:39.962Z,11.88
2022-10-20T05:07:06.676Z,12.38
2022-10-20T05:09:33.492Z,13.55
2022-10-20T05:12:00.460Z,12.77
2022-10-20T05:14:27.242Z,15.13
2022-10-20T05:16:54.116Z,15.40
2022-10-20T05:19:20.989Z,12.02
2022-10-20T05:21:47.710Z,12.93
2022-10-20T05:24:20.082Z,17.60
2022-10-20T05:26:49.017Z,11.73
2022-10-20T05:29:15.811Z,13.20
2022-10-20T05:31:43.786Z,13.68
2022-10-20T05:34:11.493Z,13.38
2022-10-20T05:36:38.192Z,18.90
2022-10-20T05:39:05.324Z,16.58
2022-10-20T05:41:36.471Z,11.57
2022-10-20T05:44:08.682Z,10.05
2022-10-20T05:46:41.865Z,14.35
2022-10-20T05:49:14.391Z,12.02
2022-10-20T05:51:41.542Z,10.05
2022-10-20T05:54:11.440Z,14.13
2022-10-20T05:56:38.373Z,14.80
2022-10-20T05:59:05.066Z,12.68
2022-10-20T06:01:40.500Z,14.40
2022-10-20T06:04:10.739Z,14.68
2022-10-20T06:06:37.621Z,12.23
2022-10-20T06:09:06.761Z,17.02
2022-10-20T06:11:37.101Z,22.88
2022-10-20T06:14:06.241Z,24.92
2022-10-20T06:16:32.985Z,27.02
2022-10-20T06:19:00.097Z,27.15
2022-10-20T06:21:29.821Z,22.27
2022-10-20T06:23:59.550Z,31.95
2022-10-20T06:26:33.009Z,42.97
2022-10-20T06:29:04.298Z,34.28
2022-10-20T06:31:39.265Z,28.38
2022-10-20T06:34:08.577Z,20.35
2022-10-20T06:36:37.071Z,19.35
2022-10-20T06:39:06.228Z,20.17
2022-10-20T06:41:33.603Z,21.23
2022-10-20T06:44:00.443Z,18.65
2022-10-20T06:46:29.107Z,18.77
2022-10-20T06:48:58.673Z,21.27
2022-10-20T06:51:26.342Z,17.00
2022-10-20T06:53:53.316Z,15.27
2022-10-20T06:56:23.253Z,18.52
2022-10-20T06:58:51.904Z,16.30
2022-10-20T07:01:23.427Z,15.18
2022-10-20T07:06:21.565Z,19.77
2022-10-20T07:08:49.259Z,14.70
2022-10-20T07:11:18.821Z,15.90
2022-10-20T07:13:46.427Z,17.65
2022-10-20T07:16:15.493Z,22.23
2022-10-20T07:21:13.327Z,22.13
2022-10-20T07:23:40.753Z,17.92
2022-10-20T07:26:08.747Z,15.57
2022-10-20T07:28:36.624Z,16.58
2022-10-20T07:31:06.504Z,15.60
2022-10-20T07:33:33.847Z,16.25
2022-10-20T07:36:01.037Z,12.13
2022-10-20T07:38:28.173Z,10.93
2022-10-20T07:41:02.906Z,10.70
2022-10-20T07:43:29.606Z,7.85
2022-10-20T07:45:56.575Z,12.48
2022-10-20T07:48:23.294Z,9.13
2022-10-20T07:50:50.004Z,8.35
2022-10-20T07:53:16.746Z,7.75
2022-10-20T07:55:43.434Z,9.15
2022-10-20T07:58:10.184Z,7.70
2022-10-20T08:00:37.025Z,6.75
2022-10-20T08:03:04.264Z,8.52
2022-10-20T08:05:30.968Z,9.57
2022-10-20T08:07:58.266Z,6.40
2022-10-20T08:10:25.309Z,10.70
2022-10-20T08:12:51.962Z,6.22
2022-10-20T08:15:18.701Z,10.02
2022-10-20T08:17:45.434Z,7.00
2022-10-20T08:20:27.208Z,6.15
2022-10-20T08:22:54.128Z,12.38
2022-10-20T08:25:20.908Z,7.93
2022-10-20T08:27:47.614Z,9.93
2022-10-20T08:30:29.420Z,4.63
2022-10-20T08:32:56.267Z,4.22
2022-10-20T08:35:23.376Z,5.35
2022-10-20T08:37:50.455Z,4.82
2022-10-20T08:40:21.294Z,3.65
2022-10-20T08:42:48.830Z,4.47
2022-10-20T08:45:21.084Z,4.95
2022-10-20T08:47:52.335Z,5.32
2022-10-20T08:52:49.885Z,6.07
2022-10-20T08:55:26.472Z,6.32
2022-10-20T08:57:58.790Z,3.33
2022-10-20T09:00:26.127Z,3.40
2022-10-20T09:02:53.065Z,3.70
2022-10-20T09:05:24.514Z,3.95
2022-10-20T09:07:52.218Z,3.90
2022-10-20T09:10:36.049Z,3.88
2022-10-20T09:13:11.460Z,4.85
2022-10-20T09:15:38.825Z,3.50
2022-10-20T09:18:10.661Z,4.03
2022-10-20T09:20:46.119Z,4.78
2022-10-20T09:23:39.304Z,3.60
2022-10-20T09:26:03.331Z,2.50
2022-10-20T09:28:35.663Z,7.55
2022-10-20T09:31:45.560Z,5.47
2022-10-20T09:34:27.483Z,2.55
2022-10-20T09:37:16.556Z,2.90
2022-10-20T09:39:55.374Z,3.47
2022-10-20T09:42:31.701Z,2.72
2022-10-20T09:45:02.595Z,1.67
2022-10-20T09:47:29.955Z,3.72
2022-10-20T09:50:02.999Z,3.38
2022-10-20T09:52:35.239Z,2.95
2022-10-20T09:55:16.374Z,4.40
2022-10-20T09:57:47.857Z,2.97
2022-10-20T10:03:21.630Z,3.38
2022-10-20T10:05:55.590Z,4.75
2022-10-20T10:08:25.269Z,3.95
2022-10-20T10:11:04.169Z,3.83
2022-10-20T10:13:45.266Z,4.10
2022-10-20T10:16:17.813Z,4.70
2022-10-20T10:19:02.538Z,4.55
2022-10-20T10:21:45.618Z,3.10
2022-10-20T10:24:36.553Z,2.53
2022-10-20T10:27:03.768Z,2.95
2022-10-20T10:29:34.470Z,2.70
2022-10-20T10:32:02.172Z,4.87
2022-10-20T10:34:52.025Z,3.95
2022-10-20T10:39:51.312Z,3.72
2022-10-20T10:42:43.322Z,2.85
2022-10-20T10:45:12.797Z,3.67
2022-10-20T10:48:13.145Z,4.78
2022-10-20T10:51:02.774Z,2.38
2022-10-20T10:53:57.425Z,2.67
2022-10-20T10:56:40.791Z,5.70
2022-10-20T10:59:29.085Z,3.00
2022-10-20T11:02:14.387Z,4.20
2022-10-20T11:05:17.265Z,5.40
2022-10-20T11:08:28.213Z,3.45
2022-10-20T11:11:23.675Z,4.15
2022-10-20T11:16:57.306Z,4.05
2022-10-20T11:19:31.691Z,6.07
2022-10-20T11:22:14.704Z,3.75
2022-10-20T11:25:11.235Z,3.90
2022-10-20T11:27:39.166Z,3.53
2022-10-20T11:30:24.113Z,5.85
2022-10-20T11:33:06.037Z,8.50
2022-10-20T11:35:58.905Z,4.72
2022-10-20T11:38:47.184Z,6.90
2022-10-20T11:41:43.795Z,4.47
2022-10-20T11:44:30.855Z,5.97
2022-10-20T11:47:06.221Z,4.40
2022-10-20T11:49:34.058Z,4.53
2022-10-20T11:52:12.640Z,3.35
2022-10-20T11:55:05.117Z,4.57
2022-10-20T11:57:43.857Z,7.38
2022-10-20T12:00:28.547Z,5.20
2022-10-20T12:03:42.386Z,4.60
2022-10-20T12:06:24.229Z,5.20
2022-10-20T12:09:03.564Z,7.32
2022-10-20T12:11:39.294Z,8.07
2022-10-20T12:14:15.056Z,5.72
2022-10-20T12:16:59.919Z,3.85
2022-10-20T12:19:31.530Z,3.35
2022-10-20T12:22:01.264Z,4.22
2022-10-20T12:24:30.884Z,8.13
2022-10-20T12:27:09.435Z,4.03
2022-10-20T12:29:36.013Z,3.03
2022-10-20T12:32:27.669Z,2.58
2022-10-20T12:37:25.015Z,6.00
2022-10-20T12:39:54.251Z,3.63
2022-10-20T12:42:26.517Z,4.22
2022-10-20T12:44:54.250Z,4.85
2022-10-20T12:47:27.418Z,4.90
2022-10-20T12:50:01.628Z,2.83
2022-10-20T12:52:32.633Z,3.83
2022-10-20T12:55:23.452Z,5.68
2022-10-20T12:58:12.599Z,3.67
2022-10-20T13:00:39.264Z,3.15
2022-10-20T13:03:31.664Z,7.18
2022-10-20T13:05:59.973Z,2.85
2022-10-20T13:08:32.971Z,3.58
2022-10-20T13:11:45.007Z,5.47
2022-10-20T13:14:17.841Z,2.42
2022-10-20T13:16:57.291Z,5.07
2022-10-20T13:19:36.639Z,7.28
2022-10-20T13:22:41.010Z,4.00
2022-10-20T13:25:31.761Z,5.50
2022-10-20T13:28:26.431Z,6.47
2022-10-20T13:30:53.069Z,2.72
2022-10-20T13:34:05.025Z,4.90
2022-10-20T13:36:38.245Z,3.10
2022-10-20T13:39:26.405Z,5.80
2022-10-20T13:42:37.420Z,3.70
2022-10-20T13:45:31.910Z,6.95
2022-10-20T13:48:13.611Z,7.72
2022-10-20T13:53:33.088Z,9.65
2022-10-20T13:56:02.958Z,3.30
2022-10-20T13:58:30.197Z,4.07
2022-10-20T14:01:27.100Z,4.30
2022-10-20T14:03:53.975Z,4.20
2022-10-20T14:06:32.179Z,6.70
2022-10-20T14:09:11.109Z,3.47
2022-10-20T14:11:38.587Z,4.15
2022-10-20T14:14:05.268Z,4.63
2022-10-20T14:16:33.035Z,7.85
2022-10-20T14:19:09.385Z,4.45
2022-10-20T14:21:43.153Z,6.68
2022-10-20T14:24:19.263Z,5.35
2022-10-20T14:26:46.179Z,4.43
2022-10-20T14:29:16.013Z,3.15
2022-10-20T14:31:43.291Z,5.78
2022-10-20T14:34:23.294Z,4.03
2022-10-20T14:36:50.987Z,4.10
2022-10-20T14:39:36.650Z,8.43
2022-10-20T14:42:21.135Z,10.13
2022-10-20T14:44:49.251Z,6.22
2022-10-20T14:47:16.873Z,5.10
2022-10-20T14:49:51.466Z,5.50
2022-10-20T14:52:22.574Z,7.03
2022-10-20T14:54:51.587Z,7.03
2022-10-20T14:57:18.609Z,6.32
2022-10-20T14:59:56.041Z,3.90
2022-10-20T15:02:25.523Z,6.53
2022-10-20T15:04:53.048Z,5.13
2022-10-20T15:07:27.800Z,7.55
2022-10-20T15:10:00.323Z,4.82
2022-10-20T15:12:36.573Z,5.90
2022-10-20T15:15:10.968Z,7.13
2022-10-20T15:17:45.910Z,5.72
2022-10-20T15:20:32.517Z,6.55
2022-10-20T15:23:12.785Z,6.47
2022-10-20T15:25:45.443Z,10.07
2022-10-20T15:28:50.748Z,6.10
2022-10-20T15:31:22.183Z,6.68
2022-10-20T15:33:49.720Z,5.45
2022-10-20T15:36:22.205Z,5.95
2022-10-20T15:38:49.910Z,5.65
2022-10-20T15:41:27.496Z,6.18
2022-10-20T15:43:54.482Z,8.38
2022-10-20T15:46:22.140Z,7.53
2022-10-20T15:48:49.178Z,5.38
2022-10-20T15:51:27.658Z,4.35
2022-10-20T15:53:54.610Z,4.10
2022-10-20T15:56:21.886Z,5.70
2022-10-20T15:58:51.966Z,7.03
2022-10-20T16:01:21.128Z,5.00
2022-10-20T16:03:48.459Z,7.75
2022-10-20T16:06:18.068Z,16.55
2022-10-20T16:08:47.694Z,10.65
2022-10-20T16:11:15.820Z,19.35
2022-10-20T16:13:42.922Z,17.35
2022-10-20T16:16:13.582Z,13.00
2022-10-20T16:18:40.268Z,10.90
2022-10-20T16:21:07.494Z,8.13
2022-10-20T16:23:42.186Z,10.77
2022-10-20T16:26:13.202Z,6.55
2022-10-20T16:28:40.297Z,10.43
2022-10-20T16:31:09.786Z,6.97
2022-10-20T16:33:37.078Z,7.93
2022-10-20T16:38:39.111Z,4.93
2022-10-20T16:41:10.510Z,6.35
2022-10-20T16:43:39.463Z,7.53
2022-10-20T16:46:07.746Z,8.27
2022-10-20T16:48:37.031Z,9.85
2022-10-20T16:51:10.018Z,8.38
2022-10-20T16:53:37.224Z,6.55
2022-10-20T16:56:04.410Z,8.65
2022-10-20T16:58:31.496Z,7.30
2022-10-20T17:01:11.377Z,8.00
2022-10-20T17:06:16.520Z,7.32
2022-10-20T17:08:43.879Z,23.73
2022-10-20T17:11:14.492Z,53.85
2022-10-20T17:13:41.772Z,21.25
2022-10-20T17:16:14.900Z,11.88
2022-10-20T17:18:42.453Z,23.50
2022-10-20T17:21:11.379Z,36.47
2022-10-20T17:23:45.279Z,21.33
2022-10-20T17:26:18.948Z,16.70
2022-10-20T17:28:46.286Z,12.23
2022-10-20T17:33:49.249Z,19.60
2022-10-20T17:36:16.788Z,16.13
2022-10-20T17:38:44.234Z,16.08
2022-10-20T17:41:16.308Z,15.13
2022-10-20T17:43:43.594Z,17.52
2022-10-20T17:46:15.993Z,25.13
2022-10-20T17:48:43.258Z,19.88
2022-10-20T17:51:23.039Z,20.05
2022-10-20T17:53:52.429Z,29.75
2022-10-20T17:56:22.519Z,13.10
2022-10-20T17:58:51.641Z,16.40
2022-10-20T18:01:23.756Z,17.15
2022-10-20T18:04:02.049Z,14.63
2022-10-20T18:06:34.153Z,10.50
2022-10-20T18:09:07.020Z,11.35
2022-10-20T18:11:35.663Z,15.95
2022-10-20T18:14:03.438Z,7.95
2022-10-20T18:16:34.190Z,16.52
2022-10-20T18:19:05.228Z,19.20
2022-10-20T18:21:32.836Z,23.60
2022-10-20T18:24:06.648Z,25.63
2022-10-20T18:26:35.991Z,22.42
2022-10-20T18:29:06.732Z,24.15
2022-10-20T18:31:36.696Z,32.17
2022-10-20T18:34:07.711Z,19.90
2022-10-20T18:36:40.377Z,22.40
2022-10-20T18:39:11.123Z,21.23
2022-10-20T18:41:40.775Z,18.10
2022-10-20T18:44:11.871Z,20.73
2022-10-20T18:46:39.671Z,17.40
2022-10-20T18:49:08.751Z,19.23
2022-10-20T18:51:36.614Z,22.50
2022-10-20T18:54:05.421Z,15.52
2022-10-20T18:56:34.021Z,16.70
2022-10-20T18:59:06.195Z,16.77
2022-10-20T19:01:36.099Z,16.08
2022-10-20T19:04:04.740Z,18.63
2022-10-20T19:06:37.552Z,18.08
2022-10-20T19:09:11.327Z,19.65
2022-10-20T19:11:40.017Z,23.17
2022-10-20T19:14:10.370Z,21.42
2022-10-20T19:16:39.109Z,20.08
2022-10-20T19:19:08.069Z,21.05
2022-10-20T19:21:36.834Z,26.65
2022-10-20T19:24:08.240Z,23.77
2022-10-20T19:26:41.390Z,48.78
2022-10-20T19:29:12.322Z,49.50
2022-10-20T19:31:48.253Z,55.95
2022-10-20T19:34:25.480Z,58.58
2022-10-20T19:36:56.704Z,66.90
2022-10-20T19:39:33.313Z,65.22
2022-10-20T19:42:02.177Z,67.88
2022-10-20T19:44:30.086Z,85.15
2022-10-20T19:46:58.579Z,77.85
2022-10-20T19:49:26.922Z,67.20
2022-10-20T19:51:54.153Z,67.78
2022-10-20T19:54:21.460Z,64.18
2022-10-20T19:56:48.718Z,69.05
2022-10-20T19:59:15.489Z,54.70
2022-10-20T20:01:42.682Z,34.63
2022-10-20T20:04:11.330Z,16.05
2022-10-20T20:06:38.381Z,27.80
2022-10-20T20:09:08.036Z,32.97
2022-10-20T20:11:36.659Z,40.13
2022-10-20T20:14:07.734Z,37.83
2022-10-20T20:16:35.500Z,35.78
2022-10-20T20:19:03.113Z,29.88
2022-10-20T20:21:30.498Z,28.10
2022-10-20T20:24:00.513Z,28.52
2022-10-20T20:26:34.472Z,30.83
2022-10-20T20:29:02.543Z,32.40
2022-10-20T20:31:29.743Z,32.03
2022-10-20T20:33:57.410Z,38.10
2022-10-20T20:36:27.232Z,33.38
2022-10-20T20:38:57.321Z,36.20
2022-10-20T20:41:26.970Z,38.95
2022-10-20T20:43:54.478Z,38.22
2022-10-20T20:46:23.065Z,40.20
2022-10-20T20:48:50.441Z,37.20
2022-10-20T20:51:17.513Z,36.53
2022-10-20T20:53:44.505Z,35.47
2022-10-20T20:56:13.496Z,19.73
2022-10-20T20:58:42.319Z,13.80
2022-10-20T21:01:19.574Z,7.05
2022-10-20T21:03:46.914Z,7.22
2022-10-20T21:06:16.443Z,7.25
2022-10-20T21:08:46.483Z,8.50
2022-10-20T21:11:18.999Z,12.80
2022-10-20T21:13:47.547Z,16.65
2022-10-20T21:16:16.104Z,12.40
2022-10-20T21:18:46.404Z,10.80
2022-10-20T21:21:15.881Z,6.45
2022-10-20T21:23:43.473Z,5.22
2022-10-20T21:26:12.988Z,8.13
2022-10-20T21:28:41.165Z,6.30
2022-10-20T21:31:11.523Z,6.30
2022-10-20T21:33:39.343Z,5.65
2022-10-20T21:36:09.565Z,15.73
2022-10-20T21:38:37.611Z,29.25
2022-10-20T21:41:19.817Z,35.55
2022-10-20T21:43:50.109Z,53.30
2022-10-20T21:46:21.456Z,67.10
2022-10-20T21:48:50.355Z,48.55
2022-10-20T21:51:20.243Z,25.00
2022-10-20T21:53:47.908Z,18.75
2022-10-20T21:56:15.197Z,33.42
2022-10-20T21:58:42.574Z,19.35
2022-10-20T22:01:14.450Z,24.25
2022-10-20T22:03:41.698Z,35.75
2022-10-20T22:06:11.082Z,49.35
2022-10-20T22:08:43.614Z,47.08
2022-10-20T22:11:13.512Z,44.22
2022-10-20T22:13:40.585Z,29.90
2022-10-20T22:16:11.834Z,19.50
2022-10-20T22:18:38.572Z,20.75
2022-10-20T22:21:09.861Z,29.25
2022-10-20T22:23:39.302Z,23.40
2022-10-20T22:26:06.388Z,28.10
2022-10-20T22:28:33.577Z,22.20
2022-10-20T22:33:28.029Z,22.90
2022-10-20T22:35:54.784Z,14.70
2022-10-20T22:38:21.545Z,15.77
2022-10-20T22:40:48.223Z,12.27
2022-10-20T22:43:15.103Z,13.00
2022-10-20T22:45:41.902Z,10.13
2022-10-20T22:48:08.620Z,12.65
2022-10-20T22:50:35.348Z,11.65
2022-10-20T22:53:02.038Z,12.63
2022-10-20T22:55:28.754Z,9.30
2022-10-20T22:57:55.484Z,15.55
2022-10-20T23:00:22.205Z,12.13
2022-10-20T23:02:48.876Z,13.00
2022-10-20T23:05:15.568Z,12.48
2022-10-20T23:07:42.355Z,13.32
2022-10-20T23:10:09.179Z,17.73
2022-10-20T23:12:36.277Z,25.40
2022-10-20T23:15:03.708Z,23.77
2022-10-20T23:17:30.495Z,27.48
2022-10-20T23:19:57.267Z,21.48
2022-10-20T23:22:24.206Z,27.38
2022-10-20T23:24:50.865Z,24.95
2022-10-20T23:27:17.580Z,25.15
2022-10-20T23:29:44.291Z,26.48
2022-10-20T23:32:11.079Z,24.48
2022-10-20T23:34:37.797Z,29.98
2022-10-20T23:37:04.464Z,37.00
2022-10-20T23:39:31.130Z,25.50
2022-10-20T23:41:57.886Z,28.20
2022-10-20T23:44:24.575Z,24.15
2022-10-20T23:46:52.154Z,18.17
2022-10-20T23:49:18.855Z,27.23
2022-10-20T23:51:45.602Z,22.48
2022-10-20T23:54:12.370Z,19.35
2022-10-20T23:56:39.059Z,17.88
2022-10-20T23:59:05.770Z,24.92
